Time;durP1;ratioP1;P1;durP2;ratioP2;P2;SDS_P1;SDS_P2;PMS_P1;PMS_P2;Temp;Humidity;BMP_temperature;BMP_pressure;BME280_temperature;BME280_humidity;BME280_pressure;Samples;Min_cycle;Max_cycle;Signal;HPM_P1;HPM_P2
2022/07/08 00:00:52;;;;;;;12.35;1.13;;;;;;;13.89;74.89;102635.28;2088090;28;25593;-70
2022/07/08 00:01:55;;;;;;;9.85;0.90;;;;;;;13.89;74.78;102628.09;2088322;28;20883;-70
2022/07/08 00:02:59;;;;;;;12.48;1.10;;;;;;;13.89;74.76;102628.09;2088632;28;20108;-70
2022/07/08 00:04:01;;;;;;;11.35;1.30;;;;;;;13.89;74.46;102628.09;2087893;28;32626;-71
2022/07/08 00:05:03;;;;;;;10.73;0.82;;;;;;;13.89;74.61;102635.28;2087957;28;20926;-70
2022/07/08 00:06:05;;;;;;;9.25;1.08;;;;;;;13.90;75.02;102637.06;2088145;28;26783;-70
2022/07/08 00:07:07;;;;;;;10.30;1.15;;;;;;;13.90;74.82;102631.69;2088164;28;26062;-71
2022/07/08 00:08:09;;;;;;;13.48;1.35;;;;;;;13.89;75.50;102633.50;2088018;28;39073;-71
2022/07/08 00:09:10;;;;;;;17.38;1.15;;;;;;;13.91;74.75;102625.41;2088190;28;24946;-71
2022/07/08 00:10:12;;;;;;;11.02;0.90;;;;;;;13.90;74.63;102631.69;2088115;28;21156;-70
2022/07/08 00:11:14;;;;;;;14.07;0.95;;;;;;;13.91;74.73;102633.50;2088037;28;20037;-70
2022/07/08 00:12:18;;;;;;;11.00;0.90;;;;;;;13.90;74.36;102629.00;2087859;28;25750;-71
2022/07/08 00:13:22;;;;;;;10.82;0.85;;;;;;;13.91;74.47;102630.78;2088072;28;34628;-71
2022/07/08 00:14:24;;;;;;;8.93;0.90;;;;;;;13.90;74.57;102629.88;2088088;28;20197;-71
2022/07/08 00:15:26;;;;;;;9.43;0.80;;;;;;;13.90;74.43;102634.38;2087814;28;37295;-71
2022/07/08 00:16:30;;;;;;;10.25;0.90;;;;;;;13.90;74.41;102635.25;2087417;28;34449;-71
2022/07/08 00:17:33;;;;;;;12.68;1.00;;;;;;;13.92;74.48;102637.94;2087770;28;20045;-71
2022/07/08 00:18:35;;;;;;;10.20;1.05;;;;;;;13.90;74.25;102637.94;2087605;28;28204;-71
2022/07/08 00:19:37;;;;;;;10.57;0.95;;;;;;;13.90;74.44;102637.94;2087832;28;25483;-71
2022/07/08 00:20:39;;;;;;;10.88;0.90;;;;;;;13.89;74.39;102641.56;2088274;28;26061;-71
2022/07/08 00:21:43;;;;;;;8.63;0.98;;;;;;;13.90;74.28;102637.06;2088828;28;20898;-71
2022/07/08 00:22:47;;;;;;;10.95;1.00;;;;;;;13.89;74.36;102637.97;2088257;28;20095;-70
2022/07/08 00:23:49;;;;;;;9.57;1.08;;;;;;;13.89;74.49;102636.19;2087441;28;22843;-71
2022/07/08 00:24:56;;;;;;;10.98;0.75;;;;;;;13.88;74.62;102645.16;2088331;28;20042;-71
2022/07/08 00:25:58;;;;;;;9.30;0.90;;;;;;;13.89;74.55;102640.66;2088292;28;22282;-71
2022/07/08 00:27:00;;;;;;;12.45;1.00;;;;;;;13.90;74.63;102627.19;2087845;28;20038;-71
2022/07/08 00:28:02;;;;;;;10.13;0.95;;;;;;;13.90;74.19;102629.88;2087767;28;20026;-71
2022/07/08 00:29:05;;;;;;;10.90;0.88;;;;;;;13.90;74.73;102637.06;2087012;28;23623;-71
2022/07/08 00:30:09;;;;;;;14.65;0.90;;;;;;;13.88;74.62;102629.00;2087931;28;28818;-71
2022/07/08 00:31:11;;;;;;;7.10;0.73;;;;;;;13.88;75.04;102629.00;2087568;28;32821;-71
2022/07/08 00:32:13;;;;;;;10.80;0.70;;;;;;;13.88;74.42;102625.44;2088396;28;20915;-71
2022/07/08 00:33:19;;;;;;;10.52;1.23;;;;;;;13.88;74.57;102633.50;2088279;28;25438;-71
2022/07/08 00:34:23;;;;;;;10.20;0.90;;;;;;;13.86;74.62;102633.50;2087959;28;23175;-71
2022/07/08 00:35:25;;;;;;;10.07;1.20;;;;;;;13.86;74.48;102638.03;2088505;28;20163;-71
2022/07/08 00:36:27;;;;;;;11.95;1.23;;;;;;;13.85;74.53;102644.28;2087707;28;22852;-71
2022/07/08 00:37:28;;;;;;;12.15;1.33;;;;;;;13.83;74.51;102638.03;2087891;28;20033;-71
2022/07/08 00:38:30;;;;;;;5.18;0.80;;;;;;;13.81;74.79;102637.16;2087975;28;20092;-71
2022/07/08 00:39:37;;;;;;;10.52;1.10;;;;;;;13.81;75.10;102639.84;2087737;28;23963;-71
2022/07/08 00:40:38;;;;;;;11.57;1.33;;;;;;;13.80;75.41;102635.38;2088266;28;20374;-71
2022/07/08 00:41:40;;;;;;;8.73;0.75;;;;;;;13.78;75.67;102639.88;2095158;28;35163;-71
2022/07/08 00:42:49;;;;;;;9.90;1.23;;;;;;;13.79;75.34;102630.91;2088223;28;20052;-71
2022/07/08 00:43:50;;;;;;;10.45;1.08;;;;;;;13.77;75.21;102632.72;2088497;28;23465;-71
2022/07/08 00:44:52;;;;;;;12.73;0.98;;;;;;;13.78;75.61;102634.50;2088347;28;24297;-70
2022/07/08 00:45:54;;;;;;;10.40;1.05;;;;;;;13.77;75.33;102635.41;2088547;28;25265;-71
2022/07/08 00:46:56;;;;;;;12.27;1.00;;;;;;;13.78;75.07;102648.84;2088465;28;29125;-71
2022/07/08 00:47:58;;;;;;;10.82;0.85;;;;;;;13.77;74.94;102640.81;2087120;28;21005;-71
2022/07/08 00:49:02;;;;;;;13.38;0.85;;;;;;;13.78;75.26;102643.44;2088472;28;20128;-71
2022/07/08 00:50:09;;;;;;;9.80;1.13;;;;;;;13.78;75.42;102639.88;2088016;28;25173;-71
2022/07/08 00:51:14;;;;;;;11.88;1.08;;;;;;;13.77;75.07;102643.50;2088233;28;23854;-71
2022/07/08 00:52:17;;;;;;;14.20;1.48;;;;;;;13.77;75.39;102644.38;2088132;28;24606;-71
2022/07/08 00:53:19;;;;;;;10.85;0.93;;;;;;;13.77;75.25;102643.50;2086942;28;37256;-71
2022/07/08 00:54:24;;;;;;;13.07;1.00;;;;;;;13.76;75.04;102637.19;2087616;28;20507;-71
2022/07/08 00:55:28;;;;;;;9.98;0.85;;;;;;;13.75;74.87;102639.00;2087535;28;20378;-71
2022/07/08 00:56:30;;;;;;;8.95;0.80;;;;;;;13.76;74.74;102637.19;2087912;28;21251;-71
2022/07/08 00:57:33;;;;;;;10.00;0.95;;;;;;;13.74;74.88;102645.28;2087163;28;41201;-71
2022/07/08 00:58:36;;;;;;;11.95;1.05;;;;;;;13.73;74.89;102640.81;2079403;28;32586;-71
2022/07/08 00:59:38;;;;;;;4.82;0.50;;;;;;;13.74;74.81;102647.97;2078771;28;26200;-71
2022/07/08 01:00:41;;;;;;;13.27;0.93;;;;;;;13.73;75.05;102646.19;2087519;28;25671;-71
2022/07/08 01:01:42;;;;;;;10.02;1.00;;;;;;;13.71;75.42;102653.41;2087986;28;20100;-71
2022/07/08 01:02:45;;;;;;;8.18;0.82;;;;;;;13.68;75.21;102642.66;2088149;28;20475;-71
2022/07/08 01:03:48;;;;;;;10.05;0.90;;;;;;;13.69;75.66;102641.75;2088085;28;22344;-71
2022/07/08 01:04:51;;;;;;;6.97;0.90;;;;;;;13.68;75.46;102644.47;2087648;28;33575;-71
2022/07/08 01:05:52;;;;;;;8.45;0.85;;;;;;;13.65;75.76;102642.66;2088101;28;21279;-71
2022/07/08 01:06:54;;;;;;;7.47;0.75;;;;;;;13.65;75.92;102648.06;2087952;28;22320;-71
2022/07/08 01:07:56;;;;;;;6.28;0.70;;;;;;;13.62;75.85;102648.09;2088111;28;23417;-71
2022/07/08 01:08:58;;;;;;;9.18;1.00;;;;;;;13.61;76.04;102643.59;2087072;28;27385;-71
2022/07/08 01:10:03;;;;;;;8.27;0.80;;;;;;;13.61;76.33;102645.41;2089066;28;22139;-71
2022/07/08 01:11:09;;;;;;;10.95;0.85;;;;;;;13.59;76.53;102644.53;2088466;28;35756;-70
2022/07/08 01:12:11;;;;;;;11.18;0.95;;;;;;;13.54;76.62;102642.75;2088893;28;40665;-71
2022/07/08 01:13:16;;;;;;;9.95;0.68;;;;;;;13.51;76.58;102642.81;2089382;28;24602;-70
2022/07/08 01:14:18;;;;;;;6.65;0.70;;;;;;;13.48;76.09;102641.94;2088931;28;22237;-71
2022/07/08 01:15:22;;;;;;;12.35;0.98;;;;;;;13.44;76.73;102635.69;2089303;28;20037;-71
2022/07/08 01:16:27;;;;;;;9.43;0.90;;;;;;;13.41;76.55;102645.56;2088878;28;27557;-70
2022/07/08 01:17:40;;;;;;;9.48;1.10;;;;;;;13.36;77.01;102649.16;2079585;28;24828;-70
2022/07/08 01:18:42;;;;;;;9.20;0.77;;;;;;;13.31;76.50;102645.63;2082685;28;20092;-70
2022/07/08 01:19:43;;;;;;;9.73;0.93;;;;;;;13.26;77.04;102647.44;2086849;28;30834;-70
2022/07/08 01:20:45;;;;;;;11.73;1.10;;;;;;;13.23;76.65;102650.13;2081484;28;20132;-70
2022/07/08 01:21:47;;;;;;;6.13;0.60;;;;;;;13.19;77.39;102645.69;2081108;28;29053;-70
2022/07/08 01:22:51;;;;;;;6.57;0.73;;;;;;;13.14;77.51;102661.84;2081040;28;27007;-70
2022/07/08 01:23:55;;;;;;;5.50;0.60;;;;;;;13.11;77.28;102652.91;2080552;28;23870;-71
2022/07/08 01:24:57;;;;;;;6.78;0.77;;;;;;;13.06;77.34;102652.03;2080784;28;23484;-71
2022/07/08 01:26:09;;;;;;;9.07;0.90;;;;;;;13.03;77.71;102654.72;2081481;28;20038;-71
2022/07/08 01:27:12;;;;;;;11.07;0.75;;;;;;;12.96;77.69;102652.09;2080612;28;21541;-70
2022/07/08 01:28:17;;;;;;;6.90;0.80;;;;;;;12.93;78.20;102646.72;2080249;28;31047;-71
2022/07/08 01:29:18;;;;;;;10.45;0.85;;;;;;;12.90;78.98;102643.16;2081332;28;20961;-70
2022/07/08 01:30:20;;;;;;;8.43;0.80;;;;;;;12.88;78.70;102647.63;2084837;28;22584;-70
2022/07/08 01:31:22;;;;;;;8.82;0.65;;;;;;;12.86;79.13;102647.66;2088927;28;24065;-70
2022/07/08 01:32:36;;;;;;;9.95;1.05;;;;;;;12.82;78.67;102639.63;2089224;28;36406;-71
2022/07/08 01:33:38;;;;;;;11.35;0.88;;;;;;;12.77;78.95;102637.81;2088857;28;40532;-70
2022/07/08 01:34:40;;;;;;;8.77;0.88;;;;;;;12.74;79.34;102640.56;2089229;28;20110;-71
2022/07/08 01:35:44;;;;;;;8.70;0.70;;;;;;;12.73;79.00;102635.19;2088057;28;24378;-71
2022/07/08 01:36:46;;;;;;;9.25;0.75;;;;;;;12.71;79.18;102637.88;2088835;28;31937;-70
2022/07/08 01:37:48;;;;;;;8.25;0.68;;;;;;;12.70;79.55;102643.25;2089688;28;20209;-71
2022/07/08 01:38:50;;;;;;;5.35;0.55;;;;;;;12.67;79.81;102640.56;2089125;28;32804;-71
2022/07/08 01:39:52;;;;;;;8.90;0.95;;;;;;;12.65;79.55;102637.00;2089189;28;24979;-71
2022/07/08 01:40:53;;;;;;;7.32;1.13;;;;;;;12.62;79.97;102642.41;2088831;28;21428;-70
2022/07/08 01:41:55;;;;;;;12.55;0.95;;;;;;;12.59;79.85;102641.50;2088358;28;37076;-71
2022/07/08 01:42:57;;;;;;;9.90;0.77;;;;;;;12.56;80.01;102646.91;2089362;28;20117;-71
2022/07/08 01:43:59;;;;;;;6.68;0.52;;;;;;;12.54;80.07;102645.09;2089050;28;26862;-70
2022/07/08 01:45:00;;;;;;;7.35;0.50;;;;;;;12.50;80.80;102638.84;2088783;28;40371;-70
2022/07/08 01:46:02;;;;;;;4.75;0.50;;;;;;;12.49;80.62;102642.44;2089491;28;20033;-70
2022/07/08 01:47:04;;;;;;;9.82;0.80;;;;;;;12.49;80.58;102646.91;2088336;28;26018;-71
2022/07/08 01:48:07;;;;;;;7.20;0.85;;;;;;;12.45;80.30;102632.59;2088506;28;23589;-70
2022/07/08 01:49:14;;;;;;;8.48;0.90;;;;;;;12.46;81.32;102642.44;2088621;28;20159;-71
2022/07/08 01:50:16;;;;;;;6.07;0.90;;;;;;;12.41;80.74;102642.44;2089228;28;30097;-71
2022/07/08 01:51:18;;;;;;;9.75;0.80;;;;;;;12.41;80.97;102646.94;2089401;28;28983;-71
2022/07/08 01:52:19;;;;;;;12.13;1.27;;;;;;;12.40;81.09;102638.00;2088505;28;20127;-70
2022/07/08 01:53:21;;;;;;;11.02;0.93;;;;;;;12.41;82.23;102642.44;2089484;28;22163;-71
2022/07/08 01:54:23;;;;;;;12.00;0.98;;;;;;;12.42;81.28;102646.06;2089617;28;20865;-70
2022/07/08 01:55:26;;;;;;;11.90;1.25;;;;;;;12.40;81.51;102642.47;2088972;28;38474;-70
2022/07/08 01:56:28;;;;;;;6.82;0.73;;;;;;;12.38;81.18;102645.16;2088701;28;28134;-70
2022/07/08 01:57:31;;;;;;;7.43;0.95;;;;;;;12.38;81.42;102647.84;2088891;28;20037;-70
2022/07/08 01:58:33;;;;;;;8.27;1.10;;;;;;;12.40;82.06;102639.81;2088914;28;22777;-70
2022/07/08 01:59:34;;;;;;;8.38;0.77;;;;;;;12.41;81.87;102646.94;2089915;28;21105;-70
2022/07/08 02:00:36;;;;;;;8.75;0.93;;;;;;;12.41;82.01;102644.25;2088381;28;23754;-70
2022/07/08 02:01:38;;;;;;;8.45;0.80;;;;;;;12.45;81.80;102639.75;2088210;28;20037;-70
2022/07/08 02:02:40;;;;;;;7.93;0.65;;;;;;;12.47;82.25;102635.28;2088538;28;22144;-71
2022/07/08 02:03:44;;;;;;;7.95;0.80;;;;;;;12.48;82.15;102646.03;2089456;28;20970;-70
2022/07/08 02:04:46;;;;;;;14.70;0.90;;;;;;;12.50;82.54;102633.47;2088688;28;30016;-70
2022/07/08 02:05:50;;;;;;;9.18;1.10;;;;;;;12.50;81.97;102632.59;2089167;28;20163;-70
2022/07/08 02:06:52;;;;;;;8.32;0.52;;;;;;;12.52;82.32;102637.03;2088747;28;26763;-70
2022/07/08 02:07:54;;;;;;;13.00;0.63;;;;;;;12.52;81.85;102637.03;2089399;28;23064;-70
2022/07/08 02:08:55;;;;;;;9.25;0.70;;;;;;;12.55;81.54;102638.84;2088619;28;38734;-70
2022/07/08 02:09:57;;;;;;;8.60;0.90;;;;;;;12.55;81.95;102642.41;2088984;28;28419;-70
2022/07/08 02:12:22;;;;;;;10.93;1.02;;;;;;;12.56;82.01;102637.91;2088574;28;22442;-70
2022/07/08 02:13:24;;;;;;;8.10;0.73;;;;;;;12.56;82.29;102649.59;2088850;28;37300;-71
2022/07/08 02:14:26;;;;;;;13.35;0.82;;;;;;;12.56;82.04;102638.84;2089198;28;23719;-71
2022/07/08 02:15:27;;;;;;;8.73;0.88;;;;;;;12.54;81.98;102637.97;2089117;28;20115;-70
2022/07/08 02:16:29;;;;;;;9.75;0.80;;;;;;;12.53;81.62;102636.16;2089385;28;20046;-70
2022/07/08 02:17:37;;;;;;;9.02;0.85;;;;;;;12.51;81.91;102643.34;2089088;28;24660;-70
2022/07/08 02:18:40;;;;;;;14.30;0.98;;;;;;;12.49;82.45;102649.59;2089464;28;20073;-70
2022/07/08 02:19:42;;;;;;;6.15;0.68;;;;;;;12.46;81.89;102646.94;2088039;28;38584;-70
2022/07/08 02:20:43;;;;;;;8.77;1.05;;;;;;;12.43;82.71;102650.50;2088830;28;21484;-70
2022/07/08 02:21:45;;;;;;;9.35;0.88;;;;;;;12.39;82.33;102648.75;2088794;28;21979;-70
2022/07/08 02:22:47;;;;;;;5.63;0.43;;;;;;;12.36;82.91;102656.81;2088994;28;24102;-70
2022/07/08 02:23:49;;;;;;;7.35;0.82;;;;;;;12.33;82.61;102654.16;2088758;28;23532;-71
2022/07/08 02:24:51;;;;;;;10.20;1.17;;;;;;;12.33;82.73;102659.53;2088503;28;39291;-70
2022/07/08 02:25:53;;;;;;;17.05;1.00;;;;;;;12.32;83.58;102650.53;2087972;28;25360;-70
2022/07/08 02:26:57;;;;;;;8.75;0.98;;;;;;;12.31;82.89;102647.84;2087517;28;26891;-70
2022/07/08 02:28:01;;;;;;;8.55;0.70;;;;;;;12.34;83.44;102653.22;2088657;28;29351;-70
2022/07/08 02:29:02;;;;;;;10.38;0.73;;;;;;;12.34;83.04;102651.44;2088803;28;23076;-70
2022/07/08 02:30:05;;;;;;;7.18;0.70;;;;;;;12.35;83.24;102655.03;2089400;28;20100;-70
2022/07/08 02:31:07;;;;;;;10.43;0.80;;;;;;;12.38;82.58;102644.25;2088697;28;22524;-70
2022/07/08 02:32:09;;;;;;;7.57;0.93;;;;;;;12.43;83.80;102647.81;2088253;28;21358;-70
2022/07/08 02:33:13;;;;;;;10.95;0.90;;;;;;;12.45;83.62;102653.19;2088877;28;27206;-70
2022/07/08 02:34:18;;;;;;;10.68;0.82;;;;;;;12.45;82.98;102655.88;2088827;28;23502;-70
2022/07/08 02:35:19;;;;;;;7.78;0.63;;;;;;;12.48;83.41;102667.50;2089050;28;27253;-70
2022/07/08 02:36:21;;;;;;;10.95;1.10;;;;;;;12.52;83.08;102657.66;2089554;28;20042;-70
2022/07/08 02:37:23;;;;;;;11.45;1.08;;;;;;;12.52;82.73;102661.22;2088273;28;25246;-70
2022/07/08 02:38:25;;;;;;;8.00;0.73;;;;;;;12.52;82.74;102660.34;2088043;28;20922;-70
2022/07/08 02:39:27;;;;;;;8.50;0.68;;;;;;;12.56;82.84;102654.03;2088138;28;26878;-71
2022/07/08 02:40:29;;;;;;;9.32;0.60;;;;;;;12.58;82.24;102668.41;2088531;28;20430;-71
2022/07/08 02:41:31;;;;;;;7.00;0.82;;;;;;;12.56;81.68;102660.34;2088597;28;28720;-71
2022/07/08 02:42:33;;;;;;;11.82;0.82;;;;;;;12.62;82.03;102663.91;2087458;28;26614;-70
2022/07/08 02:43:35;;;;;;;7.72;0.70;;;;;;;12.60;81.67;102650.47;2088952;28;20044;-70
2022/07/08 02:44:37;;;;;;;6.35;0.50;;;;;;;12.63;81.86;102660.28;2088093;28;22835;-70
2022/07/08 02:45:38;;;;;;;12.93;1.10;;;;;;;12.66;81.84;102657.59;2088769;28;26763;-70
2022/07/08 02:46:41;;;;;;;8.73;0.88;;;;;;;12.65;82.25;102651.34;2089042;28;26864;-70
2022/07/08 02:47:44;;;;;;;7.70;0.70;;;;;;;12.68;81.93;102663.88;2088710;28;22359;-70
2022/07/08 02:48:46;;;;;;;8.60;0.70;;;;;;;12.68;81.70;102662.06;2087964;28;27396;-70
2022/07/08 02:49:47;;;;;;;12.85;0.90;;;;;;;12.69;82.36;102661.19;2088451;28;20737;-70
2022/07/08 02:50:49;;;;;;;9.82;0.93;;;;;;;12.70;82.25;102657.56;2088962;28;23708;-70
2022/07/08 02:51:51;;;;;;;11.00;0.80;;;;;;;12.71;81.34;102663.88;2088977;28;20513;-70
2022/07/08 02:52:55;;;;;;;10.77;0.73;;;;;;;12.71;81.56;102672.81;2088535;28;20308;-70
2022/07/08 02:53:57;;;;;;;16.17;1.88;;;;;;;12.70;81.84;102665.63;2087924;28;22617;-71
2022/07/08 02:55:01;;;;;;;6.78;0.85;;;;;;;12.69;81.35;102660.28;2088453;28;20247;-71
2022/07/08 02:56:04;;;;;;;13.65;0.98;;;;;;;12.70;81.71;102673.69;2088631;28;27124;-70
2022/07/08 02:57:05;;;;;;;10.75;0.85;;;;;;;12.69;81.34;102666.56;2087840;28;33633;-70
2022/07/08 02:58:07;;;;;;;10.40;0.82;;;;;;;12.68;81.50;102667.44;2088313;28;23962;-71
2022/07/08 02:59:09;;;;;;;7.00;0.60;;;;;;;12.69;81.38;102674.63;2088682;28;23737;-70
2022/07/08 03:00:11;;;;;;;6.30;0.50;;;;;;;12.68;81.11;102671.94;2089033;28;28052;-70
2022/07/08 03:01:13;;;;;;;6.13;0.82;;;;;;;12.69;82.17;102671.03;2087805;28;25352;-70
2022/07/08 03:02:17;;;;;;;7.97;0.47;;;;;;;12.67;81.71;102668.34;2088711;28;24554;-70
2022/07/08 03:03:19;;;;;;;7.45;0.88;;;;;;;12.68;81.42;102663.88;2087490;28;37167;-70
2022/07/08 03:04:22;;;;;;;8.60;0.82;;;;;;;12.70;81.49;102670.13;2089239;28;20033;-70
2022/07/08 03:05:24;;;;;;;5.07;0.47;;;;;;;12.69;81.16;102666.56;2088707;28;29254;-70
2022/07/08 03:06:26;;;;;;;7.03;0.93;;;;;;;12.67;81.23;102668.34;2088805;28;25200;-70
2022/07/08 03:07:30;;;;;;;7.88;0.90;;;;;;;12.69;81.37;102671.03;2088005;28;24896;-70
2022/07/08 03:08:32;;;;;;;6.55;0.80;;;;;;;12.67;81.61;102670.13;2088635;28;20127;-70
2022/07/08 03:09:36;;;;;;;8.63;0.45;;;;;;;12.67;81.03;102667.44;2088264;28;23638;-70
2022/07/08 03:10:38;;;;;;;6.78;0.55;;;;;;;12.66;81.33;102668.34;2088420;28;21489;-70
2022/07/08 03:11:40;;;;;;;6.00;0.98;;;;;;;12.65;81.75;102675.53;2088473;28;30491;-70
2022/07/08 03:12:41;;;;;;;9.80;0.60;;;;;;;12.63;81.86;102668.34;2087750;28;35486;-70
2022/07/08 03:13:44;;;;;;;5.53;0.70;;;;;;;12.60;81.63;102677.34;2088340;28;25348;-70
2022/07/08 03:14:46;;;;;;;5.93;0.70;;;;;;;12.58;81.65;102674.66;2088710;28;22340;-70
2022/07/08 03:15:48;;;;;;;11.43;0.85;;;;;;;12.57;81.30;102677.34;2088074;28;37988;-70
2022/07/08 03:16:52;;;;;;;5.72;0.50;;;;;;;12.53;81.12;102675.56;2088925;28;32568;-71
2022/07/08 03:17:53;;;;;;;8.30;0.52;;;;;;;12.50;81.80;102675.56;2087739;28;27393;-70
2022/07/08 03:18:55;;;;;;;8.10;0.90;;;;;;;12.46;82.07;102669.31;2089551;28;20034;-70
2022/07/08 03:19:57;;;;;;;7.13;0.88;;;;;;;12.42;81.82;102672.91;2088992;28;21350;-71
2022/07/08 03:20:59;;;;;;;4.85;0.60;;;;;;;12.39;82.52;102667.53;2088160;28;24039;-70
2022/07/08 03:22:02;;;;;;;5.93;0.68;;;;;;;12.36;82.81;102675.59;2088556;28;21213;-71
2022/07/08 03:23:04;;;;;;;7.65;0.90;;;;;;;12.31;82.92;102680.09;2088312;28;22449;-71
2022/07/08 03:24:07;;;;;;;7.07;0.57;;;;;;;12.28;82.67;102686.38;2088198;28;31882;-70
2022/07/08 03:25:12;;;;;;;8.38;0.73;;;;;;;12.24;83.38;102676.53;2088473;28;29577;-71
2022/07/08 03:26:13;;;;;;;10.85;0.90;;;;;;;12.23;82.92;102688.16;2087885;28;20052;-70
2022/07/08 03:27:15;;;;;;;7.32;0.55;;;;;;;12.19;83.58;102683.72;2087840;28;30441;-71
2022/07/08 03:28:17;;;;;;;7.07;0.60;;;;;;;12.16;83.29;102684.59;2087797;28;20860;-70
2022/07/08 03:29:21;;;;;;;12.20;1.15;;;;;;;12.14;83.50;102689.06;2088243;28;32571;-71
2022/07/08 03:30:23;;;;;;;6.60;0.98;;;;;;;12.09;83.44;102685.50;2088325;28;28539;-71
2022/07/08 03:31:25;;;;;;;11.30;0.93;;;;;;;12.07;83.85;102686.41;2088031;28;24766;-71
2022/07/08 03:32:28;;;;;;;5.93;0.65;;;;;;;12.06;84.24;102689.97;2087629;28;37341;-71
2022/07/08 03:33:29;;;;;;;8.02;0.45;;;;;;;12.03;84.13;102697.13;2088533;28;20046;-70
2022/07/08 03:34:31;;;;;;;7.25;0.50;;;;;;;12.03;84.10;102685.50;2088080;28;38906;-71
2022/07/08 03:35:41;;;;;;;10.52;0.73;;;;;;;12.04;84.59;102687.28;2088820;28;20112;-71
2022/07/08 03:36:43;;;;;;;6.32;0.50;;;;;;;12.02;84.84;102694.44;2088266;28;26945;-71
2022/07/08 03:37:47;;;;;;;6.85;0.70;;;;;;;12.01;84.06;102692.69;2088643;28;25776;-71
2022/07/08 03:38:49;;;;;;;12.38;0.93;;;;;;;12.01;84.80;102687.31;2088008;28;21340;-70
2022/07/08 03:39:50;;;;;;;8.85;1.33;;;;;;;12.00;83.97;102691.75;2096399;28;23376;-70
2022/07/08 03:42:15;;;;;;;10.27;0.90;;;;;;;12.03;84.88;102691.75;2088502;28;28118;-70
2022/07/08 03:43:16;;;;;;;8.70;0.82;;;;;;;12.03;84.03;102689.09;2088029;28;37126;-71
2022/07/08 03:44:18;;;;;;;8.85;0.90;;;;;;;12.04;84.38;102687.28;2088701;28;21373;-70
2022/07/08 03:45:23;;;;;;;7.43;0.68;;;;;;;12.07;84.16;102684.59;2096423;28;24290;-70
2022/07/08 03:46:27;;;;;;;7.05;0.70;;;;;;;12.08;83.93;102685.50;2095690;28;23513;-70
2022/07/08 03:47:33;;;;;;;10.63;1.08;;;;;;;12.10;83.87;102686.41;2088189;28;26254;-70
2022/07/08 03:48:35;;;;;;;8.40;0.77;;;;;;;12.12;84.31;102690.88;2088009;28;29172;-70
2022/07/08 03:49:37;;;;;;;13.85;1.08;;;;;;;12.13;84.43;102687.31;2088658;28;20073;-70
2022/07/08 03:50:38;;;;;;;8.32;1.00;;;;;;;12.16;83.98;102681.03;2088219;28;27363;-70
2022/07/08 03:51:43;;;;;;;7.75;0.70;;;;;;;12.20;83.62;102694.44;2088242;28;32319;-70
2022/07/08 03:52:49;;;;;;;4.10;0.52;;;;;;;12.23;83.47;102693.53;2087966;28;22296;-70
2022/07/08 03:53:51;;;;;;;7.20;0.50;;;;;;;12.25;82.95;102683.69;2087956;28;27792;-71
2022/07/08 03:54:53;;;;;;;9.57;1.13;;;;;;;12.28;82.92;102693.53;2088793;28;20910;-70
2022/07/08 03:55:55;;;;;;;6.85;0.63;;;;;;;12.28;83.11;102696.22;2088146;28;27411;-70
2022/07/08 03:56:57;;;;;;;9.98;0.80;;;;;;;12.28;82.75;102689.06;2087682;28;26883;-70
2022/07/08 03:57:59;;;;;;;6.05;0.52;;;;;;;12.30;82.59;102698.00;2087299;28;31696;-71
2022/07/08 03:59:04;;;;;;;7.32;0.57;;;;;;;12.31;82.52;102691.75;2088812;28;20978;-71
2022/07/08 04:00:08;;;;;;;8.63;0.60;;;;;;;12.34;83.15;102696.19;2088388;28;24017;-71
2022/07/08 04:01:10;;;;;;;7.18;0.70;;;;;;;12.37;82.85;102693.53;2088496;28;20037;-71
2022/07/08 04:02:12;;;;;;;9.73;0.60;;;;;;;12.41;82.96;102701.56;2088139;28;20865;-71
2022/07/08 04:03:17;;;;;;;9.07;0.63;;;;;;;12.50;82.41;102700.63;2087640;28;28998;-71
2022/07/08 04:04:19;;;;;;;10.00;0.70;;;;;;;12.60;82.44;102698.84;2088463;28;20950;-71
2022/07/08 04:05:24;;;;;;;7.60;0.90;;;;;;;12.76;81.96;102699.69;2088819;28;27670;-70
2022/07/08 04:06:28;;;;;;;9.02;0.60;;;;;;;12.92;80.70;102695.09;2087916;28;37022;-71
2022/07/08 04:07:32;;;;;;;5.28;0.50;;;;;;;13.14;80.40;102702.19;2087831;28;28090;-71
2022/07/08 04:08:34;;;;;;;7.30;0.55;;;;;;;13.44;79.48;102699.34;2087766;28;20081;-71
2022/07/08 04:09:35;;;;;;;6.22;0.70;;;;;;;13.62;78.04;102692.94;2087516;28;34814;-71
2022/07/08 04:10:37;;;;;;;7.28;0.77;;;;;;;13.71;77.26;102695.56;2088475;28;27722;-71
2022/07/08 04:11:41;;;;;;;6.43;0.70;;;;;;;13.69;76.30;102700.97;2088320;28;22034;-71
2022/07/08 04:12:43;;;;;;;7.97;0.50;;;;;;;13.79;76.14;102700.91;2088479;28;20980;-70
2022/07/08 04:13:45;;;;;;;6.28;0.45;;;;;;;14.01;75.33;102702.47;2087734;28;33638;-71
2022/07/08 04:14:46;;;;;;;5.60;0.50;;;;;;;14.38;74.74;102704.84;2088424;28;26558;-70
2022/07/08 04:15:48;;;;;;;9.10;0.77;;;;;;;14.82;72.08;102705.25;2088040;28;34228;-71
2022/07/08 04:16:52;;;;;;;6.32;0.40;;;;;;;15.07;70.26;102706.75;2088287;28;31121;-71
2022/07/08 04:17:54;;;;;;;4.85;0.45;;;;;;;15.69;69.68;102707.66;2087569;28;27759;-71
2022/07/08 04:18:56;;;;;;;7.43;0.70;;;;;;;16.10;68.17;102703.41;2088803;28;20144;-71
2022/07/08 04:19:58;;;;;;;5.80;0.70;;;;;;;16.60;67.07;102704.25;2087462;28;36766;-71
2022/07/08 04:21:03;;;;;;;8.88;0.57;;;;;;;16.92;65.56;102702.72;2089009;28;20209;-71
2022/07/08 04:22:05;;;;;;;7.55;0.40;;;;;;;17.43;64.23;102705.19;2087614;28;20040;-71
2022/07/08 04:23:08;;;;;;;8.93;0.70;;;;;;;17.49;61.13;102702.31;2088600;28;20076;-71
2022/07/08 04:24:09;;;;;;;4.53;0.60;;;;;;;17.61;62.63;102700.28;2087970;28;25483;-71
2022/07/08 04:25:14;;;;;;;7.40;0.80;;;;;;;18.04;60.24;102704.66;2088053;28;38244;-71
2022/07/08 04:26:15;;;;;;;7.50;0.68;;;;;;;17.59;60.69;102703.03;2088558;28;20034;-71
2022/07/08 04:27:20;;;;;;;5.13;0.50;;;;;;;17.83;61.71;102701.50;2089021;28;20084;-71
2022/07/08 04:28:22;;;;;;;5.13;0.50;;;;;;;18.20;61.01;102697.88;2088586;28;20877;-72
2022/07/08 04:29:25;;;;;;;4.78;0.40;;;;;;;18.33;59.63;102702.97;2088290;28;20500;-71
2022/07/08 04:30:26;;;;;;;5.57;0.40;;;;;;;18.40;59.18;102710.03;2088218;28;23217;-71
2022/07/08 04:31:30;;;;;;;5.57;0.50;;;;;;;18.33;57.86;102701.16;2088517;28;20092;-72
2022/07/08 04:32:32;;;;;;;4.65;0.50;;;;;;;18.23;59.63;102711.38;2088323;28;25985;-72
2022/07/08 04:33:34;;;;;;;7.85;0.95;;;;;;;18.27;59.76;102718.47;2088057;28;20042;-72
2022/07/08 04:34:36;;;;;;;9.25;0.73;;;;;;;17.95;58.41;102707.59;2088587;28;21918;-72
2022/07/08 04:35:42;;;;;;;6.63;0.57;;;;;;;17.93;58.95;102711.22;2088704;28;20044;-71
2022/07/08 04:36:44;;;;;;;7.93;0.80;;;;;;;17.44;61.71;102720.50;2087910;28;20845;-71
2022/07/08 04:37:48;;;;;;;8.15;0.60;;;;;;;17.63;61.73;102709.25;2087896;28;20918;-71
2022/07/08 04:38:50;;;;;;;5.05;0.50;;;;;;;17.70;60.93;102710.88;2088234;28;24136;-71
2022/07/08 04:39:54;;;;;;;5.32;0.60;;;;;;;17.73;61.12;102706.28;2088666;28;20045;-71
2022/07/08 04:41:00;;;;;;;7.28;0.60;;;;;;;17.92;58.88;102711.25;2088391;28;22837;-71
2022/07/08 04:42:02;;;;;;;8.02;0.43;;;;;;;18.01;60.04;102708.31;2088099;28;32199;-72
2022/07/08 04:43:04;;;;;;;5.90;0.60;;;;;;;18.62;59.01;102703.03;2088359;28;26665;-71
2022/07/08 04:44:08;;;;;;;7.30;0.50;;;;;;;18.98;57.52;102704.75;2089105;28;26396;-71
2022/07/08 04:45:11;;;;;;;5.93;0.50;;;;;;;19.07;57.52;102704.47;2090601;28;20045;-72
2022/07/08 04:46:14;;;;;;;4.20;0.43;;;;;;;19.66;53.95;102717.13;2090422;28;39906;-72
2022/07/08 04:47:16;;;;;;;5.85;0.60;;;;;;;19.59;55.83;102716.41;2091478;28;26687;-72
2022/07/08 04:48:18;;;;;;;5.60;0.45;;;;;;;20.12;53.78;102722.88;2091426;28;30311;-72
2022/07/08 04:49:20;;;;;;;4.95;0.43;;;;;;;20.18;52.30;102712.66;2091322;28;20972;-72
2022/07/08 04:50:22;;;;;;;6.38;0.50;;;;;;;21.06;51.90;102716.75;2091087;28;20073;-72
2022/07/08 04:51:23;;;;;;;7.97;0.52;;;;;;;21.30;51.16;102714.88;2089835;28;20477;-72
2022/07/08 04:52:30;;;;;;;4.95;0.52;;;;;;;21.90;49.26;102715.19;2089298;28;36739;-72
2022/07/08 04:53:32;;;;;;;4.13;0.30;;;;;;;22.43;48.23;102701.09;2089988;28;20037;-72